createdAt,value
2022-12-05T00:01:32.759Z,29.37
2022-12-05T00:04:02.259Z,25.00
2022-12-05T00:06:31.191Z,30.70
2022-12-05T00:08:59.282Z,25.17
2022-12-05T00:11:30.712Z,24.03
2022-12-05T00:13:59.790Z,27.60
2022-12-05T00:16:30.080Z,26.33
2022-12-05T00:19:00.425Z,24.60
2022-12-05T00:21:31.107Z,26.67
2022-12-05T00:24:00.320Z,26.67
2022-12-05T00:26:28.237Z,28.70
2022-12-05T00:28:57.293Z,33.03
2022-12-05T00:31:26.364Z,24.70
2022-12-05T00:33:54.831Z,30.10
2022-12-05T00:36:28.055Z,27.40
2022-12-05T00:38:56.400Z,18.83
2022-12-05T00:41:28.901Z,21.70
2022-12-05T00:43:59.367Z,24.37
2022-12-05T00:46:28.704Z,22.33
2022-12-05T00:48:57.941Z,25.73
2022-12-05T00:51:29.148Z,23.03
2022-12-05T00:54:00.292Z,25.23
2022-12-05T00:56:30.100Z,26.33
2022-12-05T00:58:58.983Z,22.97
2022-12-05T01:01:28.754Z,22.03
2022-12-05T01:03:57.754Z,28.37
2022-12-05T01:06:26.671Z,27.30
2022-12-05T01:08:56.226Z,24.60
2022-12-05T01:11:24.558Z,23.67
2022-12-05T01:13:52.477Z,22.83
2022-12-05T01:16:28.804Z,25.87
2022-12-05T01:18:57.569Z,25.50
2022-12-05T01:21:25.449Z,27.00
2022-12-05T01:23:52.811Z,23.97
2022-12-05T01:26:22.373Z,26.87
2022-12-05T01:28:51.150Z,22.33
2022-12-05T01:31:22.711Z,25.33
2022-12-05T01:33:51.537Z,24.90
2022-12-05T01:36:21.058Z,23.93
2022-12-05T01:38:48.696Z,27.27
2022-12-05T01:41:19.680Z,25.03
2022-12-05T01:44:27.568Z,25.87
2022-12-05T01:46:56.278Z,26.80
2022-12-05T01:49:29.109Z,23.10
2022-12-05T01:52:01.925Z,24.43
2022-12-05T01:54:30.169Z,20.23
2022-12-05T01:57:04.033Z,25.70
2022-12-05T01:59:36.371Z,26.07
2022-12-05T02:02:04.734Z,24.33
2022-12-05T02:04:35.863Z,27.33
2022-12-05T02:07:03.258Z,23.47
2022-12-05T02:09:30.638Z,24.03
2022-12-05T02:12:02.013Z,24.23
2022-12-05T02:15:13.693Z,25.83
2022-12-05T02:17:53.159Z,25.93
2022-12-05T02:20:49.911Z,24.83
2022-12-05T02:23:29.699Z,24.60
2022-12-05T02:26:34.957Z,25.10
2022-12-05T02:29:14.369Z,27.60
2022-12-05T02:32:04.910Z,26.23
2022-12-05T02:34:35.918Z,27.13
2022-12-05T02:37:32.133Z,27.57
2022-12-05T02:40:15.484Z,22.37
2022-12-05T02:43:02.293Z,26.50
2022-12-05T02:45:33.323Z,24.57
2022-12-05T02:48:01.815Z,25.53
2022-12-05T02:50:34.257Z,27.17
2022-12-05T02:53:07.236Z,27.93
2022-12-05T02:55:35.659Z,28.77
2022-12-05T02:58:07.663Z,26.87
2022-12-05T03:00:39.924Z,27.67
2022-12-05T03:03:15.430Z,27.53
2022-12-05T03:06:02.759Z,28.97
2022-12-05T03:08:36.554Z,26.97
2022-12-05T03:11:04.668Z,23.90
2022-12-05T03:13:37.052Z,26.50
2022-12-05T03:16:12.776Z,22.40
2022-12-05T03:18:49.498Z,28.20
2022-12-05T03:21:27.666Z,29.03
2022-12-05T03:24:03.717Z,25.87
2022-12-05T03:26:42.440Z,26.90
2022-12-05T03:29:26.252Z,27.07
2022-12-05T03:32:05.649Z,27.60
2022-12-05T03:34:43.949Z,28.87
2022-12-05T03:37:32.215Z,26.77
2022-12-05T03:40:08.843Z,27.03
2022-12-05T03:42:41.555Z,28.30
2022-12-05T03:45:16.112Z,29.60
2022-12-05T03:47:49.722Z,28.67
2022-12-05T03:50:27.920Z,28.57
2022-12-05T03:53:20.738Z,29.30
2022-12-05T03:55:55.710Z,31.03
2022-12-05T03:58:28.949Z,27.60
2022-12-05T04:01:00.390Z,31.60
2022-12-05T04:03:52.895Z,28.63
2022-12-05T04:06:31.996Z,30.07
2022-12-05T04:09:12.378Z,25.57
2022-12-05T04:11:48.481Z,30.83
2022-12-05T04:14:22.286Z,28.43
2022-12-05T04:17:03.976Z,30.87
2022-12-05T04:20:01.365Z,25.57
2022-12-05T04:22:29.249Z,28.17
2022-12-05T04:25:17.752Z,24.77
2022-12-05T04:27:45.156Z,29.57
2022-12-05T04:30:17.319Z,28.27
2022-12-05T04:33:06.466Z,28.40
2022-12-05T04:35:52.469Z,29.00
2022-12-05T04:38:30.185Z,26.70
2022-12-05T04:41:11.312Z,29.30
2022-12-05T04:43:42.939Z,24.50
2022-12-05T04:46:13.386Z,27.37
2022-12-05T04:48:45.510Z,27.17
2022-12-05T04:51:19.006Z,26.53
2022-12-05T04:53:49.194Z,27.13
2022-12-05T04:56:19.410Z,27.13
2022-12-05T04:58:46.902Z,27.47
2022-12-05T05:01:17.079Z,31.97
2022-12-05T05:03:53.705Z,29.73
2022-12-05T05:06:21.273Z,27.93
2022-12-05T05:08:51.861Z,30.10
2022-12-05T05:11:19.272Z,25.77
2022-12-05T05:13:46.873Z,26.63
2022-12-05T05:16:20.224Z,28.70
2022-12-05T05:18:48.762Z,28.97
2022-12-05T05:21:31.250Z,29.37
2022-12-05T05:24:00.026Z,26.43
2022-12-05T05:26:28.988Z,26.20
2022-12-05T05:28:58.327Z,26.60
2022-12-05T05:31:26.752Z,28.97
2022-12-05T05:33:57.502Z,30.30
2022-12-05T05:36:27.608Z,28.20
2022-12-05T05:38:57.498Z,23.50
2022-12-05T05:41:31.357Z,27.00
2022-12-05T05:43:59.661Z,37.37
2022-12-05T05:46:29.517Z,25.67
2022-12-05T05:48:57.538Z,26.73
2022-12-05T05:51:29.664Z,24.13
2022-12-05T05:53:58.382Z,27.93
2022-12-05T05:56:26.358Z,27.33
2022-12-05T05:58:59.991Z,30.67
2022-12-05T06:01:28.434Z,28.70
2022-12-05T06:03:56.559Z,30.43
2022-12-05T06:06:27.640Z,29.93
2022-12-05T06:08:55.809Z,30.23
2022-12-05T06:11:27.146Z,31.20
2022-12-05T06:14:01.436Z,29.50
2022-12-05T06:16:30.413Z,27.13
2022-12-05T06:18:58.666Z,32.30
2022-12-05T06:21:29.226Z,26.30
2022-12-05T06:23:56.946Z,28.27
2022-12-05T06:26:24.575Z,27.03
2022-12-05T06:28:52.459Z,27.97
2022-12-05T06:31:27.111Z,25.07
2022-12-05T06:33:54.703Z,27.13
2022-12-05T06:36:24.129Z,27.30
2022-12-05T06:38:51.478Z,27.17
2022-12-05T06:41:20.759Z,23.73
2022-12-05T06:43:48.640Z,29.70
2022-12-05T06:46:16.485Z,26.37
2022-12-05T06:48:44.383Z,28.67
2022-12-05T06:51:16.374Z,24.97
2022-12-05T06:53:45.937Z,27.30
2022-12-05T06:56:18.045Z,24.70
2022-12-05T06:58:48.761Z,29.47
2022-12-05T07:01:41.805Z,24.03
2022-12-05T07:04:20.783Z,22.83
2022-12-05T07:06:51.449Z,27.27
2022-12-05T07:09:21.292Z,24.77
2022-12-05T07:11:54.184Z,22.03
2022-12-05T07:17:09.411Z,24.23
2022-12-05T07:19:37.880Z,27.07
2022-12-05T07:22:15.472Z,29.67
2022-12-05T07:24:44.981Z,24.93
2022-12-05T07:27:18.426Z,25.33
2022-12-05T07:29:54.301Z,21.90
2022-12-05T07:32:24.714Z,26.53
2022-12-05T07:34:55.658Z,23.33
2022-12-05T07:37:24.074Z,23.63
2022-12-05T07:39:53.604Z,24.30
2022-12-05T07:42:21.647Z,22.93
2022-12-05T07:44:49.542Z,19.60
2022-12-05T07:47:17.311Z,17.47
2022-12-05T07:49:46.358Z,21.13
2022-12-05T07:52:36.465Z,24.03
2022-12-05T07:55:04.262Z,23.63
2022-12-05T07:57:34.306Z,26.70
2022-12-05T08:00:01.888Z,18.93
2022-12-05T08:05:15.588Z,20.53
2022-12-05T08:07:45.647Z,20.60
2022-12-05T08:10:13.224Z,19.57
2022-12-05T08:12:42.365Z,23.30
2022-12-05T08:15:10.659Z,24.70
2022-12-05T08:17:39.159Z,23.73
2022-12-05T08:20:10.745Z,22.63
2022-12-05T08:22:38.553Z,24.97
2022-12-05T08:25:10.144Z,26.03
2022-12-05T08:27:40.246Z,24.27
2022-12-05T08:30:08.107Z,24.53
2022-12-05T08:32:49.513Z,23.83
2022-12-05T08:35:19.072Z,21.57
2022-12-05T08:37:46.573Z,20.87
2022-12-05T08:40:20.512Z,21.63
2022-12-05T08:42:48.007Z,25.30
2022-12-05T08:45:15.797Z,21.50
2022-12-05T08:47:43.412Z,21.80
2022-12-05T08:50:11.112Z,22.73
2022-12-05T08:52:38.553Z,25.03
2022-12-05T08:55:08.006Z,25.37
2022-12-05T08:57:35.517Z,26.47
2022-12-05T09:00:06.690Z,22.03
2022-12-05T09:02:34.387Z,23.83
2022-12-05T09:05:19.473Z,25.90
2022-12-05T09:07:50.696Z,23.90
2022-12-05T09:10:19.829Z,24.97
2022-12-05T09:12:47.541Z,24.77
2022-12-05T09:15:16.220Z,23.13
2022-12-05T09:17:46.432Z,26.93
2022-12-05T09:20:14.389Z,23.10
2022-12-05T09:22:43.038Z,28.27
2022-12-05T09:25:10.469Z,25.23
2022-12-05T09:27:38.187Z,26.70
2022-12-05T09:30:06.709Z,26.30
2022-12-05T09:32:34.136Z,21.30
2022-12-05T09:35:01.728Z,24.87
2022-12-05T09:37:42.911Z,26.07
2022-12-05T09:40:21.376Z,20.90
2022-12-05T09:43:18.349Z,22.87
2022-12-05T09:45:59.293Z,21.53
2022-12-05T09:48:27.283Z,22.10
2022-12-05T09:51:01.159Z,22.73
2022-12-05T09:53:35.033Z,22.63
2022-12-05T09:56:34.709Z,19.77
2022-12-05T09:59:02.289Z,18.00
2022-12-05T10:02:07.408Z,19.17
2022-12-05T10:05:00.588Z,19.43
2022-12-05T10:07:36.264Z,21.93
2022-12-05T10:10:25.090Z,19.53
2022-12-05T10:13:27.521Z,23.03
2022-12-05T10:16:00.871Z,24.27
2022-12-05T10:18:48.537Z,56.13
2022-12-05T10:21:25.628Z,36.80
2022-12-05T10:24:27.776Z,31.37
2022-12-05T10:27:01.843Z,30.60
2022-12-05T10:29:29.231Z,31.03
2022-12-05T10:32:11.853Z,26.27
2022-12-05T10:34:41.239Z,23.60
2022-12-05T10:37:23.462Z,23.20
2022-12-05T10:39:52.692Z,24.27
2022-12-05T10:42:31.942Z,23.67
2022-12-05T10:45:05.946Z,26.70
2022-12-05T10:47:36.865Z,22.40
2022-12-05T10:50:26.615Z,21.40
2022-12-05T10:52:56.774Z,23.63
2022-12-05T10:55:34.732Z,22.30
2022-12-05T10:58:17.793Z,22.37
2022-12-05T11:00:49.818Z,23.10
2022-12-05T11:03:31.840Z,23.33
2022-12-05T11:06:02.686Z,27.13
2022-12-05T11:09:02.542Z,23.67
2022-12-05T11:11:25.488Z,21.87
2022-12-05T11:14:01.209Z,22.63
2022-12-05T11:16:37.873Z,17.70
2022-12-05T11:19:38.479Z,19.97
2022-12-05T11:22:09.434Z,20.37
2022-12-05T11:24:39.006Z,17.80
2022-12-05T11:27:25.867Z,20.87
2022-12-05T11:30:04.917Z,18.37
2022-12-05T11:32:33.786Z,21.40
2022-12-05T11:35:27.763Z,17.17
2022-12-05T11:38:03.786Z,15.93
2022-12-05T11:40:38.816Z,21.17
2022-12-05T11:43:24.686Z,16.43
2022-12-05T11:45:57.614Z,19.23
2022-12-05T11:48:42.940Z,14.27
2022-12-05T11:51:37.520Z,18.00
2022-12-05T11:55:06.039Z,20.03
2022-12-05T11:57:56.192Z,17.50
2022-12-05T12:00:44.543Z,20.27
2022-12-05T12:03:39.801Z,20.77
2022-12-05T12:06:29.212Z,16.47
2022-12-05T12:09:24.784Z,17.07
2022-12-05T12:12:12.375Z,20.63
2022-12-05T12:14:39.706Z,20.13
2022-12-05T12:17:35.057Z,17.87
2022-12-05T12:20:02.509Z,19.97
2022-12-05T12:22:57.852Z,17.47
2022-12-05T12:26:04.641Z,18.97
2022-12-05T12:28:42.083Z,20.63
2022-12-05T12:31:12.408Z,25.83
2022-12-05T12:33:51.539Z,22.67
2022-12-05T12:36:46.533Z,18.67
2022-12-05T12:39:44.551Z,17.63
2022-12-05T12:42:39.802Z,17.97
2022-12-05T12:45:27.601Z,19.27
2022-12-05T12:48:19.314Z,18.70
2022-12-05T12:50:51.262Z,20.50
2022-12-05T12:53:24.652Z,19.77
2022-12-05T12:56:04.562Z,19.07
2022-12-05T12:59:05.417Z,20.80
2022-12-05T13:01:56.331Z,18.60
2022-12-05T13:04:26.661Z,18.70
2022-12-05T13:06:57.483Z,20.80
2022-12-05T13:09:40.696Z,19.07
2022-12-05T13:12:13.162Z,19.10
2022-12-05T13:14:49.277Z,19.33
2022-12-05T13:17:19.971Z,19.20
2022-12-05T13:19:50.315Z,18.23
2022-12-05T13:22:20.925Z,20.17
2022-12-05T13:24:54.145Z,20.73
2022-12-05T13:27:29.338Z,24.20
2022-12-05T13:30:06.076Z,19.43
2022-12-05T13:32:41.035Z,19.30
2022-12-05T13:35:38.498Z,22.60
2022-12-05T13:38:24.744Z,22.60
2022-12-05T13:41:12.294Z,21.40
2022-12-05T13:43:56.687Z,21.73
2022-12-05T13:46:35.306Z,20.17
2022-12-05T13:49:18.712Z,20.90
2022-12-05T13:51:49.177Z,22.90
2022-12-05T13:54:24.141Z,22.80
2022-12-05T13:56:53.350Z,20.63
2022-12-05T13:59:58.824Z,18.77
2022-12-05T14:02:47.835Z,20.33
2022-12-05T14:05:21.494Z,21.43
2022-12-05T14:08:02.257Z,22.43
2022-12-05T14:10:30.992Z,21.17
2022-12-05T14:13:27.151Z,19.97
2022-12-05T14:15:55.511Z,23.47
2022-12-05T14:18:50.714Z,23.97
2022-12-05T14:21:34.758Z,21.50
2022-12-05T14:24:43.065Z,25.87
2022-12-05T14:27:16.657Z,23.77
2022-12-05T14:30:02.656Z,23.93
2022-12-05T14:32:37.135Z,24.17
2022-12-05T14:35:13.554Z,20.67
2022-12-05T14:38:05.809Z,20.97
2022-12-05T14:40:33.142Z,28.70
2022-12-05T14:43:23.210Z,26.43
2022-12-05T14:45:58.039Z,21.07
2022-12-05T14:48:34.826Z,23.53
2022-12-05T14:51:22.658Z,21.00
2022-12-05T14:53:50.673Z,22.17
2022-12-05T14:56:24.953Z,20.70
2022-12-05T14:59:05.715Z,22.87
2022-12-05T15:01:42.627Z,21.83
2022-12-05T15:04:15.891Z,19.60
2022-12-05T15:06:46.796Z,20.20
2022-12-05T15:09:49.204Z,25.53
2022-12-05T15:12:31.002Z,22.17
2022-12-05T15:15:34.053Z,22.10
2022-12-05T15:18:22.667Z,19.20
2022-12-05T15:21:15.947Z,11.43
2022-12-05T15:23:55.931Z,38.83
2022-12-05T15:26:49.101Z,23.07
2022-12-05T15:29:25.875Z,19.83
2022-12-05T15:32:15.435Z,36.00
2022-12-05T15:35:02.369Z,23.57
2022-12-05T15:37:46.039Z,25.67
2022-12-05T15:40:22.066Z,23.53
2022-12-05T15:42:49.382Z,22.73
2022-12-05T15:45:21.885Z,28.53
2022-12-05T15:48:10.228Z,17.80
2022-12-05T15:50:47.691Z,24.77
2022-12-05T15:53:15.005Z,25.87
2022-12-05T15:55:56.095Z,18.63
2022-12-05T15:58:41.574Z,18.73
2022-12-05T16:01:17.531Z,27.80
2022-12-05T16:04:02.489Z,27.27
2022-12-05T16:06:40.575Z,33.07
2022-12-05T16:09:20.956Z,37.47
2022-12-05T16:12:00.304Z,28.87
2022-12-05T16:17:21.432Z,27.37
2022-12-05T16:19:49.098Z,26.63
2022-12-05T16:22:25.916Z,26.17
2022-12-05T16:25:22.526Z,35.73
2022-12-05T16:27:57.878Z,28.60
2022-12-05T16:30:25.848Z,28.70
2022-12-05T16:33:05.652Z,26.47
2022-12-05T16:35:45.676Z,25.30
2022-12-05T16:38:17.466Z,27.47
2022-12-05T16:40:55.357Z,30.73
2022-12-05T16:43:33.142Z,28.80
2022-12-05T16:46:15.534Z,26.33
2022-12-05T16:48:45.239Z,23.03
2022-12-05T16:51:29.210Z,27.70
2022-12-05T16:53:57.184Z,26.43
2022-12-05T16:56:26.991Z,34.03
2022-12-05T16:58:54.626Z,35.07
2022-12-05T17:01:24.742Z,27.73
2022-12-05T17:03:54.013Z,25.83
2022-12-05T17:06:24.175Z,29.03
2022-12-05T17:08:52.942Z,25.73
2022-12-05T17:11:27.239Z,24.07
2022-12-05T17:13:56.071Z,28.73
2022-12-05T17:16:24.806Z,25.97
2022-12-05T17:18:52.807Z,29.70
2022-12-05T17:21:25.857Z,27.60
2022-12-05T17:23:53.532Z,28.83
2022-12-05T17:26:22.545Z,28.20
2022-12-05T17:28:50.273Z,23.97
2022-12-05T17:31:21.158Z,25.03
2022-12-05T17:33:50.278Z,23.57
2022-12-05T17:36:17.942Z,25.47
2022-12-05T17:38:46.086Z,22.50
2022-12-05T17:41:19.934Z,29.80
2022-12-05T17:43:47.714Z,32.33
2022-12-05T17:46:23.260Z,31.93
2022-12-05T17:48:51.954Z,30.13
2022-12-05T17:51:20.352Z,27.23
2022-12-05T17:53:47.965Z,24.87
2022-12-05T17:56:15.912Z,28.20
2022-12-05T17:58:43.395Z,25.83
2022-12-05T18:01:16.760Z,23.73
2022-12-05T18:03:44.565Z,29.70
2022-12-05T18:06:12.593Z,24.70
2022-12-05T18:08:42.183Z,20.20
2022-12-05T18:11:09.956Z,22.53
2022-12-05T18:13:37.444Z,22.10
2022-12-05T18:16:05.213Z,16.13
2022-12-05T18:18:32.665Z,16.03
2022-12-05T18:21:08.279Z,16.50
2022-12-05T18:23:37.234Z,18.97
2022-12-05T18:26:06.495Z,19.77
2022-12-05T18:28:37.383Z,18.80
2022-12-05T18:31:10.547Z,19.00
2022-12-05T18:33:38.022Z,20.97
2022-12-05T18:36:11.573Z,19.03
2022-12-05T18:38:39.347Z,17.00
2022-12-05T18:41:07.032Z,16.50
2022-12-05T18:43:34.606Z,17.37
2022-12-05T18:46:04.747Z,15.90
2022-12-05T18:48:44.787Z,15.47
2022-12-05T18:51:20.942Z,15.13
2022-12-05T18:53:53.863Z,14.80
2022-12-05T18:56:25.341Z,17.10
2022-12-05T18:59:17.537Z,15.97
2022-12-05T19:01:45.952Z,15.23
2022-12-05T19:04:15.515Z,16.77
2022-12-05T19:06:48.998Z,13.13
2022-12-05T19:09:19.627Z,15.87
2022-12-05T19:11:49.789Z,18.93
2022-12-05T19:14:19.519Z,14.67
2022-12-05T19:16:53.657Z,14.53
2022-12-05T19:19:23.897Z,12.77
2022-12-05T19:21:51.238Z,14.10
2022-12-05T19:24:19.715Z,12.63
2022-12-05T19:26:48.264Z,12.27
2022-12-05T19:29:16.183Z,13.67
2022-12-05T19:31:44.595Z,12.27
2022-12-05T19:34:12.662Z,13.63
2022-12-05T19:36:45.585Z,12.73
2022-12-05T19:39:19.628Z,12.10
2022-12-05T19:41:47.380Z,11.07
2022-12-05T19:44:15.122Z,9.30
2022-12-05T19:46:43.049Z,10.03
2022-12-05T19:49:13.106Z,10.37
2022-12-05T19:51:41.186Z,12.30
2022-12-05T19:54:10.664Z,11.20
2022-12-05T19:56:38.888Z,7.20
2022-12-05T19:59:07.125Z,7.53
2022-12-05T20:01:37.975Z,7.20
2022-12-05T20:04:12.421Z,10.03
2022-12-05T20:06:47.239Z,8.20
2022-12-05T20:09:17.705Z,7.60
2022-12-05T20:11:53.921Z,4.57
2022-12-05T20:14:23.975Z,4.67
2022-12-05T20:16:52.064Z,8.40
2022-12-05T20:19:19.523Z,7.20
2022-12-05T20:21:47.099Z,8.13
2022-12-05T20:24:14.552Z,5.63
2022-12-05T20:26:45.093Z,8.10
2022-12-05T20:29:12.563Z,5.03
2022-12-05T20:31:42.050Z,7.03
2022-12-05T20:34:14.081Z,5.67
2022-12-05T20:36:43.082Z,8.53
2022-12-05T20:39:19.533Z,7.70
2022-12-05T20:41:49.242Z,7.50
2022-12-05T20:44:16.821Z,5.97
2022-12-05T20:46:44.476Z,8.17
2022-12-05T20:49:13.616Z,6.03
2022-12-05T20:51:43.336Z,6.30
2022-12-05T20:54:13.038Z,5.93
2022-12-05T20:56:41.290Z,6.27
2022-12-05T20:59:11.552Z,7.70
2022-12-05T21:01:39.561Z,5.90
2022-12-05T21:04:08.172Z,7.13
2022-12-05T21:06:37.481Z,6.43
2022-12-05T21:09:15.330Z,6.73
2022-12-05T21:11:43.215Z,6.97
2022-12-05T21:14:11.214Z,7.43
2022-12-05T21:16:38.691Z,6.33
2022-12-05T21:19:06.065Z,7.27
2022-12-05T21:21:34.294Z,9.10
2022-12-05T21:24:03.699Z,8.90
2022-12-05T21:26:33.664Z,7.57
2022-12-05T21:29:02.694Z,6.50
2022-12-05T21:31:32.584Z,5.67
2022-12-05T21:34:03.257Z,6.93
2022-12-05T21:36:33.478Z,7.97
2022-12-05T21:39:01.123Z,8.27
2022-12-05T21:41:28.821Z,11.33
2022-12-05T21:43:56.225Z,10.10
2022-12-05T21:46:25.624Z,11.53
2022-12-05T21:48:53.867Z,7.70
2022-12-05T21:51:22.143Z,10.83
2022-12-05T21:53:49.794Z,11.03
2022-12-05T21:56:19.760Z,10.80
2022-12-05T21:58:47.640Z,12.00
2022-12-05T22:01:22.995Z,13.57
2022-12-05T22:03:57.435Z,17.47
2022-12-05T22:06:25.312Z,15.60
2022-12-05T22:08:54.209Z,17.07
2022-12-05T22:11:23.575Z,15.30
2022-12-05T22:13:51.660Z,15.30
2022-12-05T22:16:19.615Z,19.10
2022-12-05T22:18:47.574Z,13.50
2022-12-05T22:21:20.434Z,11.23
2022-12-05T22:23:49.389Z,15.47
2022-12-05T22:26:24.981Z,17.20
2022-12-05T22:28:54.843Z,18.57
2022-12-05T22:31:23.539Z,17.60
2022-12-05T22:33:50.843Z,17.20
2022-12-05T22:36:19.414Z,14.80
2022-12-05T22:38:47.900Z,16.40
2022-12-05T22:41:21.034Z,16.27
2022-12-05T22:43:50.350Z,11.30
2022-12-05T22:46:19.924Z,16.70
2022-12-05T22:48:48.775Z,13.97
2022-12-05T22:51:17.362Z,12.93
2022-12-05T22:53:45.173Z,15.80
2022-12-05T22:56:15.162Z,16.50
2022-12-05T22:58:43.543Z,17.00
2022-12-05T23:01:17.653Z,14.07
2022-12-05T23:03:47.353Z,16.37
2022-12-05T23:06:17.108Z,14.37
2022-12-05T23:08:48.054Z,17.30
2022-12-05T23:11:17.588Z,18.40
2022-12-05T23:13:46.303Z,12.23
2022-12-05T23:16:15.241Z,13.27
2022-12-05T23:18:49.736Z,15.80
2022-12-05T23:21:38.630Z,15.17
2022-12-05T23:24:08.713Z,13.03
2022-12-05T23:26:46.173Z,15.00
2022-12-05T23:29:15.101Z,9.20
2022-12-05T23:31:43.332Z,13.37
2022-12-05T23:34:11.231Z,8.83
2022-12-05T23:36:39.418Z,17.70
2022-12-05T23:39:06.891Z,13.77
2022-12-05T23:41:34.332Z,14.87
2022-12-05T23:44:01.693Z,15.73
2022-12-05T23:46:29.896Z,16.73
2022-12-05T23:48:58.201Z,12.93
2022-12-05T23:51:28.215Z,13.97
2022-12-05T23:54:01.289Z,14.30
2022-12-05T23:56:31.808Z,17.30
2022-12-05T23:59:00.250Z,16.63
